sensor_id;sensor_type;location;lat;lon;timestamp;pressure;altitude;pressure_sealevel;temperature;humidity
54872;BME280;43914;57.680;11.982;2024-03-07T00:00:14;102449.06;;;-1.33;100.00
54872;BME280;43914;57.680;11.982;2024-03-07T00:02:45;102449.61;;;-1.34;100.00
54872;BME280;43914;57.680;11.982;2024-03-07T00:05:13;102448.54;;;-1.38;100.00
54872;BME280;43914;57.680;11.982;2024-03-07T00:07:39;102444.82;;;-1.41;100.00
54872;BME280;43914;57.680;11.982;2024-03-07T00:10:06;102445.67;;;-1.45;100.00
54872;BME280;43914;57.680;11.982;2024-03-07T00:12:37;102444.55;;;-1.48;100.00
54872;BME280;43914;57.680;11.982;2024-03-07T00:15:06;102441.61;;;-1.49;100.00
54872;BME280;43914;57.680;11.982;2024-03-07T00:17:32;102437.75;;;-1.53;100.00
54872;BME280;43914;57.680;11.982;2024-03-07T00:19:58;102436.38;;;-1.54;100.00
54872;BME280;43914;57.680;11.982;2024-03-07T00:22:24;102441.04;;;-1.56;100.00
54872;BME280;43914;57.680;11.982;2024-03-07T00:24:53;102439.84;;;-1.58;100.00
54872;BME280;43914;57.680;11.982;2024-03-07T00:27:19;102440.44;;;-1.59;100.00
54872;BME280;43914;57.680;11.982;2024-03-07T00:29:46;102441.12;;;-1.63;100.00
54872;BME280;43914;57.680;11.982;2024-03-07T00:32:19;102444.09;;;-1.66;100.00
54872;BME280;43914;57.680;11.982;2024-03-07T00:34:45;102443.19;;;-1.66;100.00
54872;BME280;43914;57.680;11.982;2024-03-07T00:37:10;102448.59;;;-1.65;100.00
54872;BME280;43914;57.680;11.982;2024-03-07T00:39:35;102444.02;;;-1.65;100.00
54872;BME280;43914;57.680;11.982;2024-03-07T00:42:01;102446.34;;;-1.66;100.00
54872;BME280;43914;57.680;11.982;2024-03-07T00:44:27;102444.66;;;-1.68;100.00
54872;BME280;43914;57.680;11.982;2024-03-07T00:46:53;102448.83;;;-1.71;100.00
54872;BME280;43914;57.680;11.982;2024-03-07T00:49:18;102447.31;;;-1.73;100.00
54872;BME280;43914;57.680;11.982;2024-03-07T00:51:43;102444.09;;;-1.76;100.00
54872;BME280;43914;57.680;11.982;2024-03-07T00:54:10;102445.82;;;-1.76;100.00
54872;BME280;43914;57.680;11.982;2024-03-07T00:56:38;102442.60;;;-1.74;100.00
54872;BME280;43914;57.680;11.982;2024-03-07T00:59:05;102444.40;;;-1.75;100.00
54872;BME280;43914;57.680;11.982;2024-03-07T01:01:31;102437.04;;;-1.75;100.00
54872;BME280;43914;57.680;11.982;2024-03-07T01:04:00;102440.04;;;-1.76;100.00
54872;BME280;43914;57.680;11.982;2024-03-07T01:06:25;102445.29;;;-1.75;100.00
54872;BME280;43914;57.680;11.982;2024-03-07T01:08:51;102445.92;;;-1.74;100.00
54872;BME280;43914;57.680;11.982;2024-03-07T01:11:17;102442.24;;;-1.74;100.00
54872;BME280;43914;57.680;11.982;2024-03-07T01:13:43;102447.69;;;-1.73;100.00
54872;BME280;43914;57.680;11.982;2024-03-07T01:16:09;102444.72;;;-1.74;100.00
54872;BME280;43914;57.680;11.982;2024-03-07T01:18:35;102442.80;;;-1.75;100.00
54872;BME280;43914;57.680;11.982;2024-03-07T01:21:02;102439.30;;;-1.75;100.00
54872;BME280;43914;57.680;11.982;2024-03-07T01:23:28;102441.90;;;-1.74;100.00
54872;BME280;43914;57.680;11.982;2024-03-07T01:25:58;102438.26;;;-1.75;100.00
54872;BME280;43914;57.680;11.982;2024-03-07T01:28:25;102439.86;;;-1.75;100.00
54872;BME280;43914;57.680;11.982;2024-03-07T01:30:51;102441.18;;;-1.78;100.00
54872;BME280;43914;57.680;11.982;2024-03-07T01:33:16;102437.49;;;-1.78;100.00
54872;BME280;43914;57.680;11.982;2024-03-07T01:35:42;102440.52;;;-1.79;100.00
54872;BME280;43914;57.680;11.982;2024-03-07T01:38:07;102441.33;;;-1.82;100.00
54872;BME280;43914;57.680;11.982;2024-03-07T01:40:36;102442.63;;;-1.83;100.00
54872;BME280;43914;57.680;11.982;2024-03-07T01:43:02;102438.66;;;-1.85;100.00
54872;BME280;43914;57.680;11.982;2024-03-07T01:45:28;102440.14;;;-1.87;100.00
54872;BME280;43914;57.680;11.982;2024-03-07T01:47:54;102436.98;;;-1.92;100.00
54872;BME280;43914;57.680;11.982;2024-03-07T01:50:23;102441.94;;;-1.93;100.00
54872;BME280;43914;57.680;11.982;2024-03-07T01:52:49;102440.21;;;-1.93;100.00
54872;BME280;43914;57.680;11.982;2024-03-07T01:55:22;102442.42;;;-1.96;100.00
54872;BME280;43914;57.680;11.982;2024-03-07T01:57:50;102440.36;;;-1.97;100.00
54872;BME280;43914;57.680;11.982;2024-03-07T02:00:16;102438.79;;;-1.97;100.00
54872;BME280;43914;57.680;11.982;2024-03-07T02:02:44;102436.36;;;-1.98;100.00
54872;BME280;43914;57.680;11.982;2024-03-07T02:05:11;102438.31;;;-1.98;100.00
54872;BME280;43914;57.680;11.982;2024-03-07T02:07:36;102437.97;;;-1.99;100.00
54872;BME280;43914;57.680;11.982;2024-03-07T02:10:02;102434.69;;;-2.00;100.00
54872;BME280;43914;57.680;11.982;2024-03-07T02:12:30;102435.98;;;-2.02;100.00
54872;BME280;43914;57.680;11.982;2024-03-07T02:14:58;102436.31;;;-2.01;100.00
54872;BME280;43914;57.680;11.982;2024-03-07T02:17:26;102430.80;;;-2.04;100.00
54872;BME280;43914;57.680;11.982;2024-03-07T02:19:52;102430.63;;;-2.05;100.00
54872;BME280;43914;57.680;11.982;2024-03-07T02:22:18;102431.31;;;-2.04;100.00
54872;BME280;43914;57.680;11.982;2024-03-07T02:24:45;102430.67;;;-2.06;100.00
54872;BME280;43914;57.680;11.982;2024-03-07T02:27:11;102429.14;;;-2.07;100.00
54872;BME280;43914;57.680;11.982;2024-03-07T02:29:37;102429.33;;;-2.07;100.00
54872;BME280;43914;57.680;11.982;2024-03-07T02:32:03;102430.95;;;-2.08;100.00
54872;BME280;43914;57.680;11.982;2024-03-07T02:34:29;102432.19;;;-2.09;100.00
54872;BME280;43914;57.680;11.982;2024-03-07T02:36:55;102431.52;;;-2.09;100.00
54872;BME280;43914;57.680;11.982;2024-03-07T02:39:21;102427.58;;;-2.12;100.00
54872;BME280;43914;57.680;11.982;2024-03-07T02:41:47;102422.77;;;-2.14;100.00
54872;BME280;43914;57.680;11.982;2024-03-07T02:44:16;102423.89;;;-2.16;100.00
54872;BME280;43914;57.680;11.982;2024-03-07T02:46:42;102424.08;;;-2.17;100.00
54872;BME280;43914;57.680;11.982;2024-03-07T02:49:08;102422.91;;;-2.18;100.00
54872;BME280;43914;57.680;11.982;2024-03-07T02:51:35;102423.45;;;-2.19;100.00
54872;BME280;43914;57.680;11.982;2024-03-07T02:54:01;102423.60;;;-2.19;100.00
54872;BME280;43914;57.680;11.982;2024-03-07T02:56:28;102419.63;;;-2.20;100.00
54872;BME280;43914;57.680;11.982;2024-03-07T02:58:53;102416.86;;;-2.21;100.00
54872;BME280;43914;57.680;11.982;2024-03-07T03:01:19;102416.16;;;-2.21;100.00
54872;BME280;43914;57.680;11.982;2024-03-07T03:03:44;102413.05;;;-2.22;100.00
54872;BME280;43914;57.680;11.982;2024-03-07T03:06:10;102412.39;;;-2.23;100.00
54872;BME280;43914;57.680;11.982;2024-03-07T03:08:36;102413.30;;;-2.24;100.00
54872;BME280;43914;57.680;11.982;2024-03-07T03:11:02;102411.77;;;-2.25;100.00
54872;BME280;43914;57.680;11.982;2024-03-07T03:13:28;102410.08;;;-2.27;100.00
54872;BME280;43914;57.680;11.982;2024-03-07T03:15:54;102408.48;;;-2.27;100.00
54872;BME280;43914;57.680;11.982;2024-03-07T03:18:22;102411.02;;;-2.29;100.00
54872;BME280;43914;57.680;11.982;2024-03-07T03:20:47;102410.05;;;-2.31;100.00
54872;BME280;43914;57.680;11.982;2024-03-07T03:23:14;102413.06;;;-2.32;100.00
54872;BME280;43914;57.680;11.982;2024-03-07T03:25:40;102410.13;;;-2.33;100.00
54872;BME280;43914;57.680;11.982;2024-03-07T03:28:07;102408.25;;;-2.35;100.00
54872;BME280;43914;57.680;11.982;2024-03-07T03:30:38;102409.88;;;-2.36;100.00
54872;BME280;43914;57.680;11.982;2024-03-07T03:33:05;102406.57;;;-2.37;100.00
54872;BME280;43914;57.680;11.982;2024-03-07T03:35:35;102405.73;;;-2.38;100.00
54872;BME280;43914;57.680;11.982;2024-03-07T03:38:00;102403.46;;;-2.38;100.00
54872;BME280;43914;57.680;11.982;2024-03-07T03:40:26;102408.80;;;-2.40;100.00
54872;BME280;43914;57.680;11.982;2024-03-07T03:42:52;102406.91;;;-2.41;100.00
54872;BME280;43914;57.680;11.982;2024-03-07T03:45:18;102404.05;;;-2.40;100.00
54872;BME280;43914;57.680;11.982;2024-03-07T03:47:44;102402.96;;;-2.39;100.00
54872;BME280;43914;57.680;11.982;2024-03-07T03:50:12;102403.89;;;-2.40;100.00
54872;BME280;43914;57.680;11.982;2024-03-07T03:52:39;102399.13;;;-2.40;100.00
54872;BME280;43914;57.680;11.982;2024-03-07T03:55:05;102400.21;;;-2.40;100.00
54872;BME280;43914;57.680;11.982;2024-03-07T03:57:32;102401.93;;;-2.39;100.00
54872;BME280;43914;57.680;11.982;2024-03-07T04:00:05;102401.13;;;-2.37;100.00
54872;BME280;43914;57.680;11.982;2024-03-07T04:02:35;102396.46;;;-2.38;100.00
54872;BME280;43914;57.680;11.982;2024-03-07T04:05:02;102400.36;;;-2.39;100.00
54872;BME280;43914;57.680;11.982;2024-03-07T04:07:29;102394.75;;;-2.40;100.00
54872;BME280;43914;57.680;11.982;2024-03-07T04:09:56;102397.05;;;-2.40;100.00
54872;BME280;43914;57.680;11.982;2024-03-07T04:12:23;102400.62;;;-2.41;100.00
54872;BME280;43914;57.680;11.982;2024-03-07T04:14:48;102401.34;;;-2.42;100.00
54872;BME280;43914;57.680;11.982;2024-03-07T04:17:14;102401.85;;;-2.42;100.00
54872;BME280;43914;57.680;11.982;2024-03-07T04:19:41;102400.12;;;-2.43;100.00
54872;BME280;43914;57.680;11.982;2024-03-07T04:22:07;102401.56;;;-2.43;100.00
54872;BME280;43914;57.680;11.982;2024-03-07T04:24:34;102397.92;;;-2.44;100.00
54872;BME280;43914;57.680;11.982;2024-03-07T04:27:00;102399.16;;;-2.45;100.00
54872;BME280;43914;57.680;11.982;2024-03-07T04:29:26;102398.61;;;-2.44;100.00
54872;BME280;43914;57.680;11.982;2024-03-07T04:31:52;102399.14;;;-2.44;100.00
54872;BME280;43914;57.680;11.982;2024-03-07T04:34:18;102397.13;;;-2.47;100.00
54872;BME280;43914;57.680;11.982;2024-03-07T04:36:44;102394.69;;;-2.47;100.00
54872;BME280;43914;57.680;11.982;2024-03-07T04:39:11;102400.67;;;-2.48;100.00
54872;BME280;43914;57.680;11.982;2024-03-07T04:41:48;102395.14;;;-2.50;100.00
54872;BME280;43914;57.680;11.982;2024-03-07T04:44:14;102398.17;;;-2.51;100.00
54872;BME280;43914;57.680;11.982;2024-03-07T04:46:39;102395.63;;;-2.54;100.00
54872;BME280;43914;57.680;11.982;2024-03-07T04:49:08;102393.27;;;-2.56;100.00
54872;BME280;43914;57.680;11.982;2024-03-07T04:51:34;102395.45;;;-2.58;100.00
54872;BME280;43914;57.680;11.982;2024-03-07T04:54:00;102394.13;;;-2.61;100.00
54872;BME280;43914;57.680;11.982;2024-03-07T04:56:26;102390.73;;;-2.64;100.00
54872;BME280;43914;57.680;11.982;2024-03-07T04:58:51;102393.02;;;-2.64;100.00
54872;BME280;43914;57.680;11.982;2024-03-07T05:01:18;102391.93;;;-2.63;100.00
54872;BME280;43914;57.680;11.982;2024-03-07T05:03:43;102392.80;;;-2.63;100.00
54872;BME280;43914;57.680;11.982;2024-03-07T05:06:08;102394.35;;;-2.62;100.00
54872;BME280;43914;57.680;11.982;2024-03-07T05:08:34;102393.55;;;-2.64;100.00
54872;BME280;43914;57.680;11.982;2024-03-07T05:10:59;102395.79;;;-2.68;100.00
54872;BME280;43914;57.680;11.982;2024-03-07T05:13:25;102394.44;;;-2.69;100.00
54872;BME280;43914;57.680;11.982;2024-03-07T05:15:50;102395.99;;;-2.69;100.00
54872;BME280;43914;57.680;11.982;2024-03-07T05:18:16;102395.45;;;-2.68;100.00
54872;BME280;43914;57.680;11.982;2024-03-07T05:20:42;102390.15;;;-2.67;100.00
54872;BME280;43914;57.680;11.982;2024-03-07T05:23:07;102391.89;;;-2.67;100.00
54872;BME280;43914;57.680;11.982;2024-03-07T05:25:36;102393.61;;;-2.66;100.00
54872;BME280;43914;57.680;11.982;2024-03-07T05:28:01;102389.58;;;-2.66;100.00
54872;BME280;43914;57.680;11.982;2024-03-07T05:30:28;102393.05;;;-2.65;100.00
54872;BME280;43914;57.680;11.982;2024-03-07T05:32:54;102392.18;;;-2.65;100.00
54872;BME280;43914;57.680;11.982;2024-03-07T05:35:20;102393.87;;;-2.63;100.00
54872;BME280;43914;57.680;11.982;2024-03-07T05:37:46;102392.75;;;-2.61;100.00
54872;BME280;43914;57.680;11.982;2024-03-07T05:40:12;102396.30;;;-2.63;100.00
54872;BME280;43914;57.680;11.982;2024-03-07T05:42:39;102397.43;;;-2.60;100.00
54872;BME280;43914;57.680;11.982;2024-03-07T05:45:06;102395.66;;;-2.60;100.00
54872;BME280;43914;57.680;11.982;2024-03-07T05:47:33;102393.59;;;-2.60;100.00
54872;BME280;43914;57.680;11.982;2024-03-07T05:49:59;102399.60;;;-2.62;100.00
54872;BME280;43914;57.680;11.982;2024-03-07T05:52:24;102399.84;;;-2.63;100.00
54872;BME280;43914;57.680;11.982;2024-03-07T05:54:50;102397.14;;;-2.66;100.00
54872;BME280;43914;57.680;11.982;2024-03-07T05:57:15;102399.25;;;-2.66;100.00
54872;BME280;43914;57.680;11.982;2024-03-07T05:59:41;102401.30;;;-2.65;100.00
54872;BME280;43914;57.680;11.982;2024-03-07T06:02:06;102404.78;;;-2.64;100.00
54872;BME280;43914;57.680;11.982;2024-03-07T06:04:32;102402.98;;;-2.63;100.00
54872;BME280;43914;57.680;11.982;2024-03-07T06:06:59;102404.06;;;-2.64;100.00
54872;BME280;43914;57.680;11.982;2024-03-07T06:09:25;102406.09;;;-2.61;100.00
54872;BME280;43914;57.680;11.982;2024-03-07T06:11:51;102406.33;;;-2.58;100.00
54872;BME280;43914;57.680;11.982;2024-03-07T06:14:17;102405.73;;;-2.57;100.00
54872;BME280;43914;57.680;11.982;2024-03-07T06:16:43;102408.86;;;-2.55;100.00
54872;BME280;43914;57.680;11.982;2024-03-07T06:19:11;102411.30;;;-2.55;100.00
54872;BME280;43914;57.680;11.982;2024-03-07T06:21:39;102414.50;;;-2.56;100.00
54872;BME280;43914;57.680;11.982;2024-03-07T06:24:06;102413.92;;;-2.55;100.00
54872;BME280;43914;57.680;11.982;2024-03-07T06:26:34;102411.45;;;-2.55;100.00
54872;BME280;43914;57.680;11.982;2024-03-07T06:29:07;102409.75;;;-2.56;100.00
54872;BME280;43914;57.680;11.982;2024-03-07T06:31:33;102410.77;;;-2.55;100.00
54872;BME280;43914;57.680;11.982;2024-03-07T06:34:00;102412.84;;;-2.54;100.00
54872;BME280;43914;57.680;11.982;2024-03-07T06:36:25;102414.14;;;-2.52;100.00
54872;BME280;43914;57.680;11.982;2024-03-07T06:38:51;102416.11;;;-2.47;100.00
54872;BME280;43914;57.680;11.982;2024-03-07T06:41:16;102417.37;;;-2.44;100.00
54872;BME280;43914;57.680;11.982;2024-03-07T06:43:45;102417.77;;;-2.41;100.00
54872;BME280;43914;57.680;11.982;2024-03-07T06:46:10;102418.61;;;-2.35;100.00
54872;BME280;43914;57.680;11.982;2024-03-07T06:48:38;102417.05;;;-2.30;100.00
54872;BME280;43914;57.680;11.982;2024-03-07T06:51:05;102417.99;;;-2.28;100.00
54872;BME280;43914;57.680;11.982;2024-03-07T06:53:31;102417.70;;;-2.24;100.00
54872;BME280;43914;57.680;11.982;2024-03-07T06:55:57;102420.23;;;-2.22;100.00
54872;BME280;43914;57.680;11.982;2024-03-07T06:58:23;102417.96;;;-2.18;100.00
54872;BME280;43914;57.680;11.982;2024-03-07T07:00:49;102413.23;;;-2.13;100.00
54872;BME280;43914;57.680;11.982;2024-03-07T07:03:18;102415.64;;;-2.08;100.00
54872;BME280;43914;57.680;11.982;2024-03-07T07:05:45;102416.51;;;-2.02;100.00
54872;BME280;43914;57.680;11.982;2024-03-07T07:08:11;102412.50;;;-1.99;100.00
54872;BME280;43914;57.680;11.982;2024-03-07T07:10:41;102415.48;;;-1.94;100.00
54872;BME280;43914;57.680;11.982;2024-03-07T07:13:11;102413.94;;;-1.91;100.00
54872;BME280;43914;57.680;11.982;2024-03-07T07:15:39;102416.20;;;-1.86;100.00
54872;BME280;43914;57.680;11.982;2024-03-07T07:18:05;102420.48;;;-1.79;100.00
54872;BME280;43914;57.680;11.982;2024-03-07T07:20:35;102412.58;;;-1.75;100.00
54872;BME280;43914;57.680;11.982;2024-03-07T07:23:01;102414.86;;;-1.69;100.00
54872;BME280;43914;57.680;11.982;2024-03-07T07:25:29;102411.49;;;-1.65;100.00
54872;BME280;43914;57.680;11.982;2024-03-07T07:27:55;102412.04;;;-1.61;100.00
54872;BME280;43914;57.680;11.982;2024-03-07T07:30:22;102410.62;;;-1.56;100.00
54872;BME280;43914;57.680;11.982;2024-03-07T07:32:49;102408.88;;;-1.52;100.00
54872;BME280;43914;57.680;11.982;2024-03-07T07:35:14;102407.45;;;-1.48;100.00
54872;BME280;43914;57.680;11.982;2024-03-07T07:37:42;102409.98;;;-1.41;100.00
54872;BME280;43914;57.680;11.982;2024-03-07T07:40:09;102408.69;;;-1.35;100.00
54872;BME280;43914;57.680;11.982;2024-03-07T07:42:44;102406.85;;;-1.29;100.00
54872;BME280;43914;57.680;11.982;2024-03-07T07:45:12;102402.34;;;-1.22;100.00
54872;BME280;43914;57.680;11.982;2024-03-07T07:47:42;102404.17;;;-1.16;100.00
54872;BME280;43914;57.680;11.982;2024-03-07T07:50:16;102405.79;;;-1.08;100.00
54872;BME280;43914;57.680;11.982;2024-03-07T07:55:25;102405.11;;;-0.97;100.00
54872;BME280;43914;57.680;11.982;2024-03-07T07:57:56;102404.30;;;-0.90;100.00
54872;BME280;43914;57.680;11.982;2024-03-07T08:00:24;102404.01;;;-0.83;100.00
54872;BME280;43914;57.680;11.982;2024-03-07T08:02:57;102402.70;;;-0.77;100.00
54872;BME280;43914;57.680;11.982;2024-03-07T08:05:36;102401.14;;;-0.70;100.00
54872;BME280;43914;57.680;11.982;2024-03-07T08:08:03;102400.44;;;-0.63;100.00
54872;BME280;43914;57.680;11.982;2024-03-07T08:10:30;102403.10;;;-0.55;100.00
54872;BME280;43914;57.680;11.982;2024-03-07T08:13:00;102392.40;;;-0.49;100.00
54872;BME280;43914;57.680;11.982;2024-03-07T08:15:27;102392.73;;;-0.40;100.00
54872;BME280;43914;57.680;11.982;2024-03-07T08:17:53;102390.86;;;-0.34;100.00
54872;BME280;43914;57.680;11.982;2024-03-07T08:20:21;102390.77;;;-0.28;100.00
54872;BME280;43914;57.680;11.982;2024-03-07T08:22:48;102389.20;;;-0.21;100.00
54872;BME280;43914;57.680;11.982;2024-03-07T08:25:19;102390.33;;;-0.15;100.00
54872;BME280;43914;57.680;11.982;2024-03-07T08:27:47;102388.32;;;-0.06;100.00
54872;BME280;43914;57.680;11.982;2024-03-07T08:30:14;102390.77;;;0.02;100.00
54872;BME280;43914;57.680;11.982;2024-03-07T08:32:41;102390.86;;;0.07;100.00
54872;BME280;43914;57.680;11.982;2024-03-07T08:35:08;102389.48;;;0.14;100.00
54872;BME280;43914;57.680;11.982;2024-03-07T08:37:38;102390.35;;;0.21;100.00
54872;BME280;43914;57.680;11.982;2024-03-07T08:40:05;102393.36;;;0.28;100.00
54872;BME280;43914;57.680;11.982;2024-03-07T08:42:36;102392.58;;;0.34;100.00
54872;BME280;43914;57.680;11.982;2024-03-07T08:45:03;102395.41;;;0.40;100.00
54872;BME280;43914;57.680;11.982;2024-03-07T08:47:32;102393.84;;;0.47;100.00
54872;BME280;43914;57.680;11.982;2024-03-07T08:49:59;102389.90;;;0.52;100.00
54872;BME280;43914;57.680;11.982;2024-03-07T08:52:25;102388.75;;;0.57;100.00
54872;BME280;43914;57.680;11.982;2024-03-07T08:54:51;102387.54;;;0.64;100.00
54872;BME280;43914;57.680;11.982;2024-03-07T08:57:16;102385.77;;;0.67;100.00
54872;BME280;43914;57.680;11.982;2024-03-07T08:59:43;102384.58;;;0.74;100.00
54872;BME280;43914;57.680;11.982;2024-03-07T09:02:09;102379.47;;;0.84;100.00
54872;BME280;43914;57.680;11.982;2024-03-07T09:04:37;102377.23;;;0.93;100.00
54872;BME280;43914;57.680;11.982;2024-03-07T09:07:04;102373.10;;;1.01;100.00
54872;BME280;43914;57.680;11.982;2024-03-07T09:09:32;102369.98;;;1.10;100.00
54872;BME280;43914;57.680;11.982;2024-03-07T09:11:57;102368.31;;;1.19;100.00
54872;BME280;43914;57.680;11.982;2024-03-07T09:14:23;102366.73;;;1.25;100.00
54872;BME280;43914;57.680;11.982;2024-03-07T09:16:48;102364.26;;;1.31;100.00
54872;BME280;43914;57.680;11.982;2024-03-07T09:19:15;102364.10;;;1.38;100.00
54872;BME280;43914;57.680;11.982;2024-03-07T09:21:46;102364.06;;;1.45;100.00
54872;BME280;43914;57.680;11.982;2024-03-07T09:24:12;102362.36;;;1.50;100.00
54872;BME280;43914;57.680;11.982;2024-03-07T09:26:37;102361.05;;;1.58;100.00
54872;BME280;43914;57.680;11.982;2024-03-07T09:29:03;102360.77;;;1.66;100.00
54872;BME280;43914;57.680;11.982;2024-03-07T09:31:33;102357.66;;;1.71;100.00
54872;BME280;43914;57.680;11.982;2024-03-07T09:33:59;102360.66;;;1.78;100.00
54872;BME280;43914;57.680;11.982;2024-03-07T09:36:25;102357.85;;;1.84;100.00
54872;BME280;43914;57.680;11.982;2024-03-07T09:38:51;102358.20;;;1.90;100.00
54872;BME280;43914;57.680;11.982;2024-03-07T09:41:16;102354.75;;;1.98;100.00
54872;BME280;43914;57.680;11.982;2024-03-07T09:43:51;102351.48;;;2.06;100.00
54872;BME280;43914;57.680;11.982;2024-03-07T09:46:23;102351.02;;;2.14;100.00
54872;BME280;43914;57.680;11.982;2024-03-07T09:48:50;102352.17;;;2.22;100.00
54872;BME280;43914;57.680;11.982;2024-03-07T09:51:20;102353.40;;;2.31;100.00
54872;BME280;43914;57.680;11.982;2024-03-07T09:53:51;102352.78;;;2.39;100.00
54872;BME280;43914;57.680;11.982;2024-03-07T09:56:21;102348.15;;;2.42;100.00
54872;BME280;43914;57.680;11.982;2024-03-07T09:58:50;102348.09;;;2.43;100.00
54872;BME280;43914;57.680;11.982;2024-03-07T10:01:21;102348.98;;;2.49;100.00
54872;BME280;43914;57.680;11.982;2024-03-07T10:03:48;102351.14;;;2.54;100.00
54872;BME280;43914;57.680;11.982;2024-03-07T10:06:16;102347.18;;;2.62;100.00
54872;BME280;43914;57.680;11.982;2024-03-07T10:08:44;102346.42;;;2.66;100.00
54872;BME280;43914;57.680;11.982;2024-03-07T10:11:10;102340.15;;;2.64;100.00
54872;BME280;43914;57.680;11.982;2024-03-07T10:13:37;102345.20;;;2.65;100.00
54872;BME280;43914;57.680;11.982;2024-03-07T10:16:03;102345.02;;;2.71;100.00
54872;BME280;43914;57.680;11.982;2024-03-07T10:18:31;102344.48;;;2.77;100.00
54872;BME280;43914;57.680;11.982;2024-03-07T10:20:57;102340.17;;;2.84;100.00
54872;BME280;43914;57.680;11.982;2024-03-07T10:23:23;102345.79;;;2.94;100.00
54872;BME280;43914;57.680;11.982;2024-03-07T10:25:50;102343.08;;;3.03;100.00
54872;BME280;43914;57.680;11.982;2024-03-07T10:28:16;102344.58;;;3.14;100.00
54872;BME280;43914;57.680;11.982;2024-03-07T10:30:43;102344.51;;;3.23;100.00
54872;BME280;43914;57.680;11.982;2024-03-07T10:33:13;102335.59;;;3.33;100.00
54872;BME280;43914;57.680;11.982;2024-03-07T10:35:39;102333.50;;;3.41;100.00
54872;BME280;43914;57.680;11.982;2024-03-07T10:38:04;102329.98;;;3.43;100.00
54872;BME280;43914;57.680;11.982;2024-03-07T10:40:32;102328.27;;;3.51;100.00
54872;BME280;43914;57.680;11.982;2024-03-07T10:42:58;102323.41;;;3.54;100.00
54872;BME280;43914;57.680;11.982;2024-03-07T10:45:29;102323.77;;;3.57;100.00
54872;BME280;43914;57.680;11.982;2024-03-07T10:47:56;102325.38;;;3.60;100.00
54872;BME280;43914;57.680;11.982;2024-03-07T10:50:43;102321.46;;;3.60;100.00
54872;BME280;43914;57.680;11.982;2024-03-07T10:53:29;102320.23;;;3.63;100.00
54872;BME280;43914;57.680;11.982;2024-03-07T10:59:09;102313.72;;;3.70;100.00
54872;BME280;43914;57.680;11.982;2024-03-07T11:01:42;102308.23;;;3.79;100.00
54872;BME280;43914;57.680;11.982;2024-03-07T11:04:10;102302.48;;;3.88;100.00
54872;BME280;43914;57.680;11.982;2024-03-07T11:06:40;102300.66;;;3.99;100.00
54872;BME280;43914;57.680;11.982;2024-03-07T11:09:07;102298.23;;;4.12;100.00
54872;BME280;43914;57.680;11.982;2024-03-07T11:11:39;102295.84;;;4.21;100.00
54872;BME280;43914;57.680;11.982;2024-03-07T11:14:10;102290.66;;;4.27;100.00
54872;BME280;43914;57.680;11.982;2024-03-07T11:16:40;102289.48;;;4.34;100.00
54872;BME280;43914;57.680;11.982;2024-03-07T11:19:19;102285.10;;;4.39;100.00
54872;BME280;43914;57.680;11.982;2024-03-07T11:21:47;102283.55;;;4.40;100.00
54872;BME280;43914;57.680;11.982;2024-03-07T11:24:24;102284.13;;;4.42;100.00
54872;BME280;43914;57.680;11.982;2024-03-07T11:26:55;102283.73;;;4.50;100.00
54872;BME280;43914;57.680;11.982;2024-03-07T11:29:49;102278.13;;;4.60;100.00
54872;BME280;43914;57.680;11.982;2024-03-07T11:32:19;102273.86;;;4.65;100.00
54872;BME280;43914;57.680;11.982;2024-03-07T11:34:47;102273.73;;;4.72;100.00
54872;BME280;43914;57.680;11.982;2024-03-07T11:37:21;102268.49;;;4.84;100.00
54872;BME280;43914;57.680;11.982;2024-03-07T11:40:04;102266.83;;;4.92;100.00
54872;BME280;43914;57.680;11.982;2024-03-07T11:42:44;102265.88;;;4.98;100.00
54872;BME280;43914;57.680;11.982;2024-03-07T11:45:12;102264.86;;;5.07;100.00
54872;BME280;43914;57.680;11.982;2024-03-07T11:47:49;102263.11;;;5.12;100.00
54872;BME280;43914;57.680;11.982;2024-03-07T11:50:14;102257.46;;;5.12;100.00
54872;BME280;43914;57.680;11.982;2024-03-07T11:52:45;102252.95;;;5.20;100.00
54872;BME280;43914;57.680;11.982;2024-03-07T11:55:12;102252.66;;;5.29;100.00
54872;BME280;43914;57.680;11.982;2024-03-07T11:57:38;102250.23;;;5.33;100.00
54872;BME280;43914;57.680;11.982;2024-03-07T12:00:04;102249.31;;;5.41;100.00
54872;BME280;43914;57.680;11.982;2024-03-07T12:02:37;102242.69;;;5.46;100.00
54872;BME280;43914;57.680;11.982;2024-03-07T12:05:05;102237.65;;;5.50;100.00
54872;BME280;43914;57.680;11.982;2024-03-07T12:07:31;102239.48;;;5.54;100.00
54872;BME280;43914;57.680;11.982;2024-03-07T12:09:59;102242.40;;;5.60;100.00
54872;BME280;43914;57.680;11.982;2024-03-07T12:12:29;102236.91;;;5.65;100.00
54872;BME280;43914;57.680;11.982;2024-03-07T12:14:54;102237.86;;;5.68;100.00
54872;BME280;43914;57.680;11.982;2024-03-07T12:17:21;102233.38;;;5.71;100.00
54872;BME280;43914;57.680;11.982;2024-03-07T12:19:47;102228.56;;;5.79;100.00
54872;BME280;43914;57.680;11.982;2024-03-07T12:22:13;102230.16;;;5.89;100.00
54872;BME280;43914;57.680;11.982;2024-03-07T12:24:39;102229.28;;;5.98;100.00
54872;BME280;43914;57.680;11.982;2024-03-07T12:27:12;102222.70;;;6.08;100.00
54872;BME280;43914;57.680;11.982;2024-03-07T12:29:39;102223.41;;;6.17;100.00
54872;BME280;43914;57.680;11.982;2024-03-07T12:32:08;102220.83;;;6.27;100.00
54872;BME280;43914;57.680;11.982;2024-03-07T12:34:36;102217.10;;;6.34;100.00
54872;BME280;43914;57.680;11.982;2024-03-07T12:37:06;102218.35;;;6.39;100.00
54872;BME280;43914;57.680;11.982;2024-03-07T12:39:33;102218.39;;;6.41;100.00